Sunday, November 19, 2017, 9:02 PM EST
Back to Local

KACK, Nantucket Memorial Airport

Location: Nantucket, MA, United States Lat: 41.25
Local Time: 9:02 PM EST ( 2:02 GMT) Lon: -70.067
Time Zone: US/Eastern Elev: 49 ft

Show me the last for .
Show Decoded

2017-11-19 20:53 METAR KACK 200153Z 29013G23KT 10SM CLR 05/M01 A2962 RMK AO2 PK WND 30027/0112
                 SLP031 T00501006 =
2017-11-19 19:53 METAR KACK 200053Z 29014G25KT 10SM CLR 06/M01 A2959 RMK AO2 PK WND 28028/0026
                 SLP020 T00561011 =
2017-11-19 18:53 METAR KACK 192353Z 30011G21KT 10SM CLR 07/00 A2956 RMK AO2 PK WND 28030/2328
                 PRESRR SLP010 T00670000 10139 20067 51054 =
2017-11-19 17:53 METAR KACK 192253Z 28015G23KT 10SM CLR 07/00 A2951 RMK AO2 PK WND 27028/2159
                 SLP994 T00720000 =
2017-11-19 16:53 METAR KACK 192153Z 28017G26KT 10SM CLR 08/01 A2945 RMK AO2 PK WND 28031/2125
                 SLP973 T00830006 =
2017-11-19 15:53 METAR KACK 192053Z 28015G26KT 10SM CLR 09/02 A2940 RMK AO2 PK WND 27032/2004
                 SLP956 T00940017 53051 =
2017-11-19 14:53 METAR KACK 191953Z 27023G37KT 10SM CLR 11/03 A2935 RMK AO2 PK WND 27037/1948
                 PRESRR SLP937 T01110028 =
2017-11-19 14:11 METAR KACK 191911Z 27027G34KT 10SM SCT028 OVC035 11/05 A2930 RMK AO2 PK WND
                 26034/1910 T01110050 =
2017-11-19 13:53 METAR KACK 191853Z 27025G36KT 10SM BKN027 OVC035 12/06 A2928 RMK AO2 PK WND
                 25038/1819 PRESRR SLP916 T01170061 =
2017-11-19 13:44 METAR KACK 191844Z 26021G36KT 10SM BKN027 12/08 A2927 RMK AO2 PK WND 25038/1819
                 T01220083 =
2017-11-19 12:53 METAR KACK 191753Z 25025G39KT 10SM FEW023 13/08 A2925 RMK AO2 PK WND 24041/1731
                 SLP905 60018 T01330083 10156 20133 55004 =
2017-11-19 12:41 METAR KACK 191741Z 24023G40KT 9SM SCT026 14/11 A2925 RMK AO2 PK WND 24041/1731
                 T01440111 =
2017-11-19 12:34 METAR KACK 191734Z 24031G41KT 9SM FEW010 BKN014 OVC038 14/11 A2925 RMK AO2 PK
                 WND 24041/1731 T01440106 =
2017-11-19 12:04 METAR KACK 191704Z 24027G32KT 5SM BR BKN016 BKN025 OVC040 15/14 A2924 RMK AO2 PK
                 WND 24032/1704 T01500139 =
2017-11-19 11:53 METAR KACK 191653Z 23022G32KT 6SM BR FEW010 BKN014 OVC038 14/14 A2924 RMK AO2 PK
                 WND 22035/1643 RAE43 SLP902 P0001 T01440139 =
2017-11-19 10:53 METAR KACK 191553Z 21024G30KT 4SM -RA BR BKN020 BKN040 OVC085 14/14 A2927 RMK
                 AO2 PK WND 21030/1553 SLP911 P0001 T01440144 =
2017-11-19 10:49 METAR KACK 191549Z 21021G27KT 4SM -RA BR BKN020 BKN040 OVC085 14/14 A2926 RMK
                 AO2 PK WND 20028/1532 P0001 =
2017-11-19 09:53 METAR KACK 191453Z 21021KT 3SM -RA BR FEW045 BKN070 OVC085 14/14 A2929 RMK AO2
                 PK WND 21029/1427 SLP920 P0006 60016 T01440144 56017 =
2017-11-19 08:53 METAR KACK 191353Z 21022G28KT 4SM -RA BR FEW009 BKN040 OVC065 15/15 A2931 RMK
                 AO2 PK WND 19032/1315 SLP924 P0008 T01500150 =
2017-11-19 08:31 METAR KACK 191331Z 21021G28KT 3SM R24/5500VP6000FT RA BR FEW007 BKN017 OVC024
                 15/15 A2932 RMK AO2 PK WND 19032/1315 P0008 T01500150 =
2017-11-19 08:14 METAR KACK 191314Z 19019G31KT 3SM RA BR FEW015 BKN026 OVC031 14/14 A2932 RMK AO2
                 PK WND 18031/1314 P0002 T01390139 =
2017-11-19 07:53 METAR KACK 191253Z 18015KT 3SM -RA BR FEW026 BKN046 OVC060 13/13 A2932 RMK AO2
                 SLP928 P0002 T01330133 =
2017-11-19 06:53 METAR KACK 191153Z 19016KT 7SM -RA OVC065 14/13 A2934 RMK AO2 RAB52 SLP936 P0000
                 60000 T01390133 10150 20139 56030 =
2017-11-19 05:53 METAR KACK 191053Z AUTO 19015KT 7SM OVC060 14/13 A2937 RMK AO2 SLP947 T01440133
                 TSNO =
2017-11-19 04:53 METAR KACK 190953Z AUTO 19016KT 8SM OVC060 14/13 A2940 RMK AO2 SLP955 T01440133
                 TSNO =
2017-11-19 03:53 METAR KACK 190853Z AUTO 19016KT 8SM FEW030 OVC065 14/13 A2943 RMK AO2 PK WND
                 18027/0834 SLP966 T01390128 56033 TSNO =
2017-11-19 02:53 METAR KACK 190753Z AUTO 19018KT 8SM FEW060 OVC095 14/13 A2945 RMK AO2 SLP974
                 T01440128 TSNO =
2017-11-19 01:53 METAR KACK 190653Z AUTO 19015KT 8SM BKN033 14/13 A2950 RMK AO2 SLP990 T01390128
                 TSNO =
2017-11-19 00:53 METAR KACK 190553Z AUTO 19016KT 8SM FEW048 FEW110 14/13 A2953 RMK AO2 SLP999
                 60000 T01390128 10139 20117 58030 TSNO =
2017-11-18 23:53 METAR KACK 190453Z AUTO 19011KT 7SM FEW041 BKN050 BKN100 13/13 A2957 RMK AO2
                 RAE0356 SLP015 P0000 T01330128 401391022 TSNO =
2017-11-18 22:53 METAR KACK 190353Z AUTO 20013KT 8SM -RA OVC090 14/13 A2960 RMK AO2 RAE0254B39
                 SLP023 P0000 T01390133 TSNO =
2017-11-18 21:53 METAR KACK 190253Z AUTO 18013KT 9SM -RA FEW037 OVC100 13/12 A2962 RMK AO2 RAB30
                 SLP030 P0000 60000 T01280122 58033 TSNO =

Support USWX by starting your Amazon purchase here.